Weather History for Midland, MI

Change the Weather History Date:

Tuesday, February 19, 2013

  Actual Average (KMBS) Record (KMBS)
Temperature  
Mean Temperature 30 °F 25 °F  
Max Temperature 42 °F 33 °F 45 °F (1997)
Min Temperature 18 °F 18 °F 3 °F (2006)
Degree Days  
Heating Degree Days 34    
Month to date heating degree days  
Since 1 July heating degree days  
Cooling Degree Days 0    
Month to date cooling degree days  
Year to date cooling degree days  
Moisture  
Dew Point 26 °F    
Average Humidity 81    
Maximum Humidity 94    
Minimum Humidity 61    
Precipitation  
Precipitation 0.01 in 0.06 in 0.10 in (1998)
Month to date precipitation 0.98  
Year to date precipitation 2.69  
Snow  
Snow 0.00 in - - ()
Month to date snowfall  
Since 1 July snowfall  
Snow Depth -    
Sea Level Pressure  
Sea Level Pressure 29.54 in    
Wind  
Wind Speed 13 mph (WSW)    
Max Wind Speed 25 mph    
Max Gust Speed 33 mph    
Visibility 8 miles    
Events Rain , Snow    
T = Trace of Precipitation, MM = Missing Value Source: NWS Daily Summary

Daily Weather History Graph

Daily Weather History Graph

Search for Another Location

Airport:

Trip Planner

Search our weather history database for the weather conditions in past years. The results will help you decide how hot, cold, wet, or windy it might be!

Date:

Astronomy

Feb. 19, 2013 Rise Set
Actual Time 7:29 AM EST 6:13 PM EST
Civil Twilight 7:00 AM EST 6:42 PM EST
Nautical Twilight 6:26 AM EST 7:15 PM EST
Astronomical Twilight 5:53 AM EST 7:48 PM EST
Moon 12:38 PM EST (2/19) 3:06 AM EST (2/19)
Length of Visible Light 11h 42m
Length of Day
10h 43m
Waxing Gibbous, 67% of the Moon is Illuminated
Feb 19
Waxing Gibbous
Feb 25
Full
Mar 4
Last Quarter
Mar 11
New
Mar 19
First Quarter

Hourly Weather History & Observations

Time (EST) Temp. Windchill Dew Point Humidity Pressure Visibility Wind Dir Wind Speed Gust Speed Precip Events Conditions
12:14 AM 40.5 °F 34.6 °F 36.0 °F 84% 29.48 in 10.0 mi SSE 9.2 mph - N/A   Overcast
12:34 AM 41.0 °F 36.4 °F 35.6 °F 81% 29.46 in 10.0 mi SSE 6.9 mph - N/A   Overcast
12:53 AM 41.2 °F 36.0 °F 36.1 °F 82% 29.45 in 10.0 mi SSE 8.1 mph - N/A Rain Light Rain
1:14 AM 42.1 °F 36.1 °F 37.6 °F 84% 29.43 in 10.0 mi SSE 10.4 mph 18.4 mph N/A   Drizzle
1:34 AM 42.3 °F 35.9 °F 38.5 °F 86% 29.42 in 10.0 mi South 11.5 mph 18.4 mph N/A   Drizzle
1:53 AM 42.3 °F 35.5 °F 38.8 °F 88% 29.40 in 10.0 mi SSE 12.7 mph 21.9 mph N/A Rain Light Rain
2:14 AM 42.1 °F 34.9 °F 39.4 °F 90% 29.38 in 10.0 mi SSE 13.8 mph 20.7 mph N/A Rain Light Rain
2:34 AM 42.1 °F 36.6 °F 39.4 °F 90% 29.36 in 10.0 mi South 9.2 mph 18.4 mph N/A Rain Rain
2:54 AM 42.1 °F 35.2 °F 40.1 °F 93% 29.35 in 10.0 mi SSE 12.7 mph 20.7 mph N/A   Drizzle
3:14 AM 41.9 °F 35.9 °F 40.1 °F 93% 29.33 in 10.0 mi SSE 10.4 mph 20.7 mph N/A Rain Rain
3:33 AM 41.9 °F 35.0 °F 40.3 °F 94% 29.32 in 10.0 mi South 12.7 mph 18.4 mph N/A   Drizzle
3:54 AM 41.9 °F 35.0 °F 40.1 °F 93% 29.30 in 10.0 mi South 12.7 mph 18.4 mph N/A Rain Light Rain
4:14 AM 41.9 °F 35.4 °F 40.3 °F 94% 29.30 in 10.0 mi SSW 11.5 mph - N/A Rain Light Rain
4:33 AM 41.7 °F 34.1 °F 39.2 °F 91% 29.31 in 10.0 mi SSW 15.0 mph 24.2 mph 0.01 in   Drizzle
4:54 AM 39.9 °F 29.2 °F 36.9 °F 89% 29.32 in 10.0 mi SW 25.3 mph 33.4 mph 0.01 in   Overcast
5:14 AM 37.4 °F 27.8 °F 34.9 °F 91% 29.34 in 10.0 mi WSW 17.3 mph 25.3 mph N/A   Overcast
5:34 AM 36.9 °F 28.7 °F 34.0 °F 89% 29.35 in 10.0 mi WSW 12.7 mph 23.0 mph N/A   Overcast
5:54 AM 36.7 °F 28.0 °F 33.3 °F 87% 29.37 in 10.0 mi WSW 13.8 mph 21.9 mph N/A   Overcast
6:14 AM 36.0 °F 28.0 °F 32.7 °F 88% 29.38 in 10.0 mi WSW 11.5 mph 27.6 mph N/A   Overcast
6:34 AM 35.8 °F 27.8 °F 32.0 °F 86% 29.38 in 10.0 mi WSW 11.5 mph 24.2 mph N/A   Overcast
6:54 AM 35.6 °F 26.2 °F 32.0 °F 87% 29.39 in 10.0 mi WSW 15.0 mph 24.2 mph N/A   Overcast
7:14 AM 35.6 °F 27.1 °F 31.5 °F 85% 29.39 in 10.0 mi WSW 12.7 mph 20.7 mph N/A   Overcast
7:34 AM 34.7 °F 23.7 °F 30.2 °F 84% 29.41 in 10.0 mi WSW 19.6 mph 27.6 mph N/A   Overcast
7:54 AM 33.8 °F 21.9 °F 30.0 °F 86% 29.42 in 10.0 mi SW 21.9 mph 27.6 mph N/A   Overcast
8:14 AM 33.1 °F 20.9 °F 29.3 °F 86% 29.44 in 10.0 mi SW 21.9 mph 29.9 mph N/A   Overcast
8:16 AM 32.9 °F 21.6 °F 29.1 °F 86% 29.44 in 10.0 mi SW 18.4 mph 29.9 mph N/A   Overcast
8:54 AM 32.0 °F 20.8 °F 27.3 °F 83% 29.46 in 10.0 mi SW 17.3 mph 32.2 mph N/A   Overcast
9:14 AM 31.8 °F 20.6 °F 26.8 °F 82% 29.47 in 10.0 mi WSW 17.3 mph 29.9 mph N/A   Overcast
9:34 AM 31.8 °F 21.4 °F 25.7 °F 78% 29.47 in 10.0 mi WSW 15.0 mph 27.6 mph N/A Snow Light Snow
9:54 AM 31.3 °F 19.9 °F 24.8 °F 77% 29.48 in 10.0 mi WSW 17.3 mph 32.2 mph N/A Snow Light Snow
10:14 AM 31.1 °F 20.5 °F 25.2 °F 79% 29.49 in 10.0 mi SW 15.0 mph 27.6 mph N/A   Overcast
10:34 AM 30.7 °F 18.5 °F 24.6 °F 78% 29.49 in 10.0 mi SW 19.6 mph 25.3 mph N/A   Overcast
10:54 AM 30.2 °F 17.4 °F 23.9 °F 77% 29.50 in 10.0 mi WSW 20.7 mph 28.8 mph N/A Snow Light Snow
11:14 AM 30.0 °F 18.3 °F 23.4 °F 76% 29.51 in 10.0 mi WSW 17.3 mph 28.8 mph N/A Snow Light Snow
11:34 AM 29.5 °F 17.2 °F 23.4 °F 78% 29.51 in 7.0 mi SW 18.4 mph 27.6 mph N/A Snow Light Snow
11:54 AM 29.7 °F 16.4 °F 23.0 °F 76% 29.51 in 7.0 mi WSW 21.9 mph 29.9 mph N/A Snow Light Snow
12:14 PM 29.7 °F 18.2 °F 23.4 °F 77% 29.51 in 5.0 mi SW 16.1 mph 29.9 mph N/A Snow Light Snow
12:34 PM 29.8 °F 18.0 °F 22.6 °F 75% 29.51 in 10.0 mi WSW 17.3 mph 31.1 mph N/A   Overcast
12:54 PM 29.7 °F 16.1 °F 22.3 °F 74% 29.51 in 10.0 mi WSW 23.0 mph 31.1 mph N/A   Overcast
1:14 PM 29.5 °F 18.0 °F 22.5 °F 75% 29.52 in 10.0 mi WSW 16.1 mph 29.9 mph N/A   Overcast
1:34 PM 29.3 °F 17.7 °F 22.1 °F 75% 29.53 in 10.0 mi WSW 16.1 mph 33.4 mph N/A   Overcast
1:54 PM 30.0 °F 18.3 °F 22.3 °F 73% 29.53 in 10.0 mi WSW 17.3 mph 31.1 mph N/A   Overcast
2:14 PM 30.0 °F 19.1 °F 22.3 °F 73% 29.54 in 10.0 mi WSW 15.0 mph 29.9 mph N/A Snow Light Snow
2:34 PM 30.0 °F 18.7 °F 21.6 °F 71% 29.55 in 10.0 mi West 16.1 mph 23.0 mph N/A   Overcast
2:54 PM 30.2 °F 18.5 °F 19.8 °F 65% 29.56 in 10.0 mi West 17.3 mph 28.8 mph N/A   Overcast
3:14 PM 28.8 °F 16.6 °F 23.2 °F 80% 29.58 in 2.5 mi West 17.3 mph 21.9 mph N/A Snow Light Snow
3:34 PM 28.8 °F 18.4 °F 21.0 °F 73% 29.59 in 10.0 mi West 12.7 mph 23.0 mph N/A   Overcast
3:54 PM 27.0 °F 15.6 °F 21.9 °F 81% 29.62 in 1.2 mi West 13.8 mph 25.3 mph N/A Snow Light Snow
4:14 PM 27.1 °F 16.4 °F 20.5 °F 76% 29.63 in 4.0 mi West 12.7 mph 24.2 mph N/A Snow Light Snow
4:34 PM 26.6 °F 13.8 °F 19.4 °F 74% 29.64 in 3.0 mi WNW 17.3 mph 26.5 mph N/A Snow Light Snow
4:54 PM 25.5 °F 12.9 °F 20.8 °F 82% 29.66 in 1.0 mi West 16.1 mph 24.2 mph N/A Snow Light Snow
5:14 PM 25.2 °F 13.3 °F 19.2 °F 78% 29.68 in 4.0 mi West 13.8 mph - N/A Snow Light Snow
5:34 PM 24.8 °F 13.4 °F 20.3 °F 83% 29.69 in 1.2 mi West 12.7 mph 20.7 mph N/A Snow Light Snow
5:54 PM 23.9 °F 11.7 °F 20.3 °F 86% 29.71 in 1.2 mi West 13.8 mph 23.0 mph N/A Snow Light Snow
6:14 PM 23.5 °F 11.8 °F 19.8 °F 85% 29.72 in 1.5 mi WSW 12.7 mph 19.6 mph N/A Snow Light Snow
7:34 PM 22.3 °F 13.0 °F 18.1 °F 84% 29.77 in 1.2 mi West 8.1 mph 18.4 mph N/A Snow Light Snow
7:38 PM 22.1 °F 11.3 °F 18.1 °F 85% 29.78 in 1.5 mi West 10.4 mph - N/A Snow Light Snow
8:14 PM 21.9 °F 9.2 °F 16.7 °F 80% 29.79 in 7.0 mi West 13.8 mph 20.7 mph N/A Snow Light Snow
8:55 PM 21.2 °F 10.1 °F 16.7 °F 83% 29.81 in 5.0 mi West 10.4 mph 20.7 mph N/A Snow Light Snow
9:14 PM 21.2 °F 10.9 °F 16.7 °F 83% 29.82 in 5.0 mi West 9.2 mph - N/A Snow Light Snow
9:34 PM 21.2 °F 10.9 °F 16.7 °F 83% 29.83 in 5.0 mi West 9.2 mph - N/A Snow Light Snow
9:54 PM 21.2 °F 9.5 °F 13.8 °F 73% 29.83 in 10.0 mi West 11.5 mph 23.0 mph N/A Snow Light Snow
10:14 PM 21.2 °F 9.5 °F 13.1 °F 71% 29.84 in 10.0 mi West 11.5 mph 18.4 mph N/A   Overcast
10:34 PM 20.8 °F 9.7 °F 12.2 °F 69% 29.84 in 10.0 mi WNW 10.4 mph 19.6 mph N/A   Overcast
10:54 PM 20.5 °F 6.4 °F 11.3 °F 68% 29.85 in 10.0 mi WNW 16.1 mph 23.0 mph N/A   Overcast
11:14 PM 19.9 °F 5.7 °F 9.9 °F 65% 29.86 in 10.0 mi WNW 16.1 mph 21.9 mph N/A   Overcast
11:34 PM 19.4 °F 6.0 °F 9.9 °F 66% 29.86 in 10.0 mi WNW 13.8 mph 25.3 mph N/A   Overcast
11:54 PM 18.9 °F 2.9 °F 7.3 °F 61% 29.87 in 10.0 mi WNW 19.6 mph 29.9 mph N/A   Overcast